createdAt,value
2019-03-21T00:02:25.791Z,5.42
2019-03-21T00:04:58.912Z,5.34
2019-03-21T00:07:30.228Z,5.21
2019-03-21T00:10:30.676Z,5.18
2019-03-21T00:13:02.090Z,5.16
2019-03-21T00:15:53.185Z,5.03
2019-03-21T00:18:25.810Z,5.03
2019-03-21T00:20:57.673Z,4.96
2019-03-21T00:23:29.115Z,4.89
2019-03-21T00:26:02.378Z,4.88
2019-03-21T00:28:33.344Z,4.87
2019-03-21T00:31:04.499Z,4.83
2019-03-21T00:33:36.769Z,4.74
2019-03-21T00:36:09.218Z,4.73
2019-03-21T00:38:40.434Z,4.74
2019-03-21T00:41:11.481Z,4.67
2019-03-21T00:43:42.750Z,4.62
2019-03-21T00:46:13.939Z,4.56
2019-03-21T00:48:45.046Z,4.52
2019-03-21T00:51:16.266Z,4.49
2019-03-21T00:53:48.426Z,4.45
2019-03-21T00:56:19.779Z,4.45
2019-03-21T00:58:51.298Z,4.36
2019-03-21T01:01:22.784Z,4.36
2019-03-21T01:03:54.294Z,4.29
2019-03-21T01:06:25.746Z,4.22
2019-03-21T01:08:57.405Z,4.20
2019-03-21T01:11:29.879Z,4.15
2019-03-21T01:14:01.342Z,4.15
2019-03-21T01:16:32.684Z,4.11
2019-03-21T01:19:04.010Z,4.09
2019-03-21T01:21:36.416Z,3.99
2019-03-21T01:24:07.661Z,3.96
2019-03-21T01:26:39.103Z,3.93
2019-03-21T01:29:10.347Z,3.90
2019-03-21T01:31:41.697Z,3.89
2019-03-21T01:34:14.076Z,3.80
2019-03-21T01:36:45.159Z,3.80
2019-03-21T01:39:16.482Z,3.76
2019-03-21T01:41:48.942Z,3.72
2019-03-21T01:44:20.396Z,3.67
2019-03-21T01:46:51.540Z,3.66
2019-03-21T01:49:22.785Z,3.59
2019-03-21T01:51:54.244Z,3.59
2019-03-21T01:54:25.827Z,3.53
2019-03-21T01:56:57.037Z,3.47
2019-03-21T01:59:28.076Z,3.41
2019-03-21T02:01:59.504Z,3.37
2019-03-21T02:04:31.987Z,3.32
2019-03-21T02:07:04.968Z,3.30
2019-03-21T02:09:36.067Z,3.26
2019-03-21T02:12:07.493Z,3.23
2019-03-21T02:14:38.596Z,3.21
2019-03-21T02:17:09.577Z,3.21
2019-03-21T02:19:41.058Z,3.19
2019-03-21T02:22:12.129Z,3.13
2019-03-21T02:24:43.430Z,3.10
2019-03-21T02:27:15.858Z,3.04
2019-03-21T02:29:47.162Z,3.03
2019-03-21T02:32:19.551Z,2.95
2019-03-21T02:34:51.905Z,2.99
2019-03-21T02:37:23.199Z,2.96
2019-03-21T02:39:59.820Z,2.92
2019-03-21T02:42:27.787Z,2.92
2019-03-21T02:45:08.257Z,2.88
2019-03-21T02:47:32.118Z,2.85
2019-03-21T02:50:04.876Z,2.74
2019-03-21T02:52:36.076Z,2.69
2019-03-21T02:55:09.704Z,2.69
2019-03-21T02:57:41.721Z,2.65
2019-03-21T03:00:18.954Z,2.66
2019-03-21T03:02:51.060Z,2.62
2019-03-21T03:05:25.630Z,2.58
2019-03-21T03:07:57.064Z,2.53
2019-03-21T03:10:37.634Z,2.57
2019-03-21T03:13:09.865Z,2.56
2019-03-21T03:15:41.675Z,2.49
2019-03-21T03:18:17.544Z,2.59
2019-03-21T03:20:49.879Z,2.56
2019-03-21T03:23:21.060Z,2.56
2019-03-21T03:25:52.347Z,2.52
2019-03-21T03:28:38.887Z,2.50
2019-03-21T03:31:10.552Z,2.42
2019-03-21T03:33:41.774Z,2.47
2019-03-21T03:36:16.196Z,2.43
2019-03-21T03:38:47.358Z,2.36
2019-03-21T03:41:20.378Z,2.37
2019-03-21T03:43:53.216Z,2.31
2019-03-21T03:46:25.599Z,2.25
2019-03-21T03:48:56.733Z,2.25
2019-03-21T03:51:27.815Z,2.23
2019-03-21T03:53:59.085Z,2.25
2019-03-21T03:56:30.682Z,2.25
2019-03-21T03:59:07.880Z,2.18
2019-03-21T04:01:39.120Z,2.11
2019-03-21T04:04:10.440Z,2.03
2019-03-21T04:06:41.626Z,2.07
2019-03-21T04:09:12.686Z,2.00
2019-03-21T04:11:45.137Z,1.99
2019-03-21T04:14:16.485Z,1.97
2019-03-21T04:16:48.436Z,1.97
2019-03-21T04:19:19.764Z,1.91
2019-03-21T04:21:51.444Z,1.96
2019-03-21T04:24:22.794Z,1.96
2019-03-21T04:26:54.350Z,2.01
2019-03-21T04:29:25.696Z,2.08
2019-03-21T04:31:57.273Z,2.10
2019-03-21T04:34:29.034Z,2.13
2019-03-21T04:37:01.339Z,2.10
2019-03-21T04:39:33.466Z,2.23
2019-03-21T04:42:06.448Z,2.24
2019-03-21T04:44:37.692Z,2.32
2019-03-21T04:47:09.147Z,2.36
2019-03-21T04:49:42.576Z,2.43
2019-03-21T04:52:14.331Z,2.43
2019-03-21T04:54:45.753Z,2.53
2019-03-21T04:57:17.109Z,2.60
2019-03-21T04:59:48.611Z,2.71
2019-03-21T05:02:20.122Z,2.77
2019-03-21T05:04:52.351Z,2.91
2019-03-21T05:07:23.684Z,2.99
2019-03-21T05:09:57.161Z,3.15
2019-03-21T05:12:29.142Z,3.26
2019-03-21T05:15:02.948Z,3.38
2019-03-21T05:17:34.131Z,3.48
2019-03-21T05:20:14.191Z,3.62
2019-03-21T05:22:44.687Z,3.80
2019-03-21T05:25:16.481Z,3.85
2019-03-21T05:27:49.984Z,3.80
2019-03-21T05:30:24.703Z,3.94
2019-03-21T05:32:56.165Z,4.18
2019-03-21T05:35:31.204Z,4.22
2019-03-21T05:38:03.676Z,4.08
2019-03-21T05:40:38.438Z,4.19
2019-03-21T05:43:16.620Z,4.27
2019-03-21T05:45:48.416Z,4.50
2019-03-21T05:48:20.848Z,4.54
2019-03-21T05:50:52.145Z,4.69
2019-03-21T05:53:23.594Z,4.72
2019-03-21T05:55:55.407Z,4.71
2019-03-21T05:58:31.127Z,4.78
2019-03-21T06:01:09.789Z,4.90
2019-03-21T06:03:50.561Z,5.02
2019-03-21T06:06:31.086Z,5.17
2019-03-21T06:09:04.283Z,5.25
2019-03-21T06:11:35.867Z,5.52
2019-03-21T06:14:07.324Z,5.74
2019-03-21T06:16:38.872Z,5.93
2019-03-21T06:19:14.845Z,6.01
2019-03-21T06:22:04.198Z,6.30
2019-03-21T06:24:53.980Z,6.24
2019-03-21T06:27:29.783Z,6.19
2019-03-21T06:30:00.983Z,6.06
2019-03-21T06:32:32.540Z,6.33
2019-03-21T06:35:04.910Z,6.42
2019-03-21T06:37:36.056Z,6.46
2019-03-21T06:40:07.753Z,6.61
2019-03-21T06:42:39.375Z,6.74
2019-03-21T06:45:12.315Z,6.92
2019-03-21T06:47:44.707Z,7.29
2019-03-21T06:50:16.188Z,7.36
2019-03-21T06:52:47.772Z,7.41
2019-03-21T06:55:19.137Z,7.43
2019-03-21T06:57:50.556Z,7.39
2019-03-21T07:00:21.792Z,7.51
2019-03-21T07:02:53.188Z,7.53
2019-03-21T07:05:26.661Z,7.73
2019-03-21T07:07:57.482Z,7.70
2019-03-21T07:10:28.776Z,7.69
2019-03-21T07:13:01.158Z,7.76
2019-03-21T07:15:34.135Z,7.93
2019-03-21T07:18:05.675Z,8.14
2019-03-21T07:20:41.223Z,8.19
2019-03-21T07:23:12.789Z,8.34
2019-03-21T07:25:44.393Z,8.34
2019-03-21T07:28:15.642Z,8.40
2019-03-21T07:30:48.974Z,8.55
2019-03-21T07:33:20.567Z,8.75
2019-03-21T07:35:51.949Z,8.75
2019-03-21T07:38:24.021Z,8.96
2019-03-21T07:40:56.570Z,8.94
2019-03-21T07:43:28.046Z,8.92
2019-03-21T07:46:01.642Z,9.15
2019-03-21T07:48:33.130Z,9.10
2019-03-21T07:51:04.471Z,9.20
2019-03-21T07:53:36.824Z,9.32
2019-03-21T07:56:08.010Z,9.55
2019-03-21T07:58:39.941Z,9.71
2019-03-21T08:01:12.204Z,9.59
2019-03-21T08:03:44.839Z,9.69
2019-03-21T08:06:16.167Z,9.76
2019-03-21T08:08:47.202Z,9.93
2019-03-21T08:11:20.583Z,10.25
2019-03-21T08:13:52.813Z,9.89
2019-03-21T08:16:24.038Z,9.73
2019-03-21T08:18:55.153Z,9.93
2019-03-21T08:21:27.415Z,10.10
2019-03-21T08:23:59.844Z,9.85
2019-03-21T08:26:31.235Z,10.19
2019-03-21T08:29:10.539Z,10.45
2019-03-21T08:31:45.810Z,10.58
2019-03-21T08:34:35.996Z,10.38
2019-03-21T08:37:11.489Z,10.54
2019-03-21T08:39:51.301Z,10.28
2019-03-21T08:42:24.257Z,10.06
2019-03-21T08:44:57.450Z,9.81
2019-03-21T08:47:33.645Z,10.16
2019-03-21T08:50:10.693Z,9.95
2019-03-21T08:52:41.813Z,10.30
2019-03-21T08:55:15.687Z,10.33
2019-03-21T08:57:47.921Z,10.59
2019-03-21T09:00:21.412Z,10.67
2019-03-21T09:02:54.489Z,10.93
2019-03-21T09:05:26.750Z,10.86
2019-03-21T09:07:58.098Z,10.69
2019-03-21T09:10:30.418Z,10.61
2019-03-21T09:13:01.799Z,10.57
2019-03-21T09:15:34.754Z,10.74
2019-03-21T09:18:06.347Z,10.77
2019-03-21T09:20:40.453Z,11.11
2019-03-21T09:23:12.232Z,11.22
2019-03-21T09:25:44.805Z,11.24
2019-03-21T09:28:16.736Z,11.44
2019-03-21T09:30:50.501Z,11.50
2019-03-21T09:33:21.358Z,11.47
2019-03-21T09:35:54.969Z,11.42
2019-03-21T09:38:27.989Z,11.01
2019-03-21T09:41:04.227Z,11.22
2019-03-21T09:43:38.763Z,11.65
2019-03-21T09:46:12.225Z,12.01
2019-03-21T09:48:44.508Z,11.44
2019-03-21T09:51:30.859Z,11.51
2019-03-21T09:54:14.626Z,11.49
2019-03-21T09:56:52.046Z,11.45
2019-03-21T09:59:23.554Z,11.81
2019-03-21T10:01:54.978Z,11.51
2019-03-21T10:04:27.820Z,11.96
2019-03-21T10:06:59.606Z,12.13
2019-03-21T10:09:33.436Z,12.01
2019-03-21T10:12:05.869Z,11.41
2019-03-21T10:14:37.486Z,11.80
2019-03-21T10:17:08.872Z,12.05
2019-03-21T10:19:40.159Z,12.14
2019-03-21T10:22:11.712Z,11.87
2019-03-21T10:24:43.057Z,11.56
2019-03-21T10:27:14.613Z,11.89
2019-03-21T10:29:49.905Z,11.88
2019-03-21T10:32:21.195Z,12.36
2019-03-21T10:34:54.341Z,12.39
2019-03-21T10:37:25.951Z,12.20
2019-03-21T10:39:57.397Z,12.03
2019-03-21T10:42:28.689Z,11.90
2019-03-21T10:45:03.110Z,12.18
2019-03-21T10:47:35.768Z,11.98
2019-03-21T10:50:07.261Z,11.20
2019-03-21T10:52:39.454Z,11.65
2019-03-21T10:55:10.921Z,12.37
2019-03-21T10:57:43.101Z,12.43
2019-03-21T11:00:14.475Z,12.91
2019-03-21T11:02:45.682Z,13.81
2019-03-21T11:05:17.002Z,13.75
2019-03-21T11:07:48.129Z,12.94
2019-03-21T11:10:19.425Z,13.11
2019-03-21T11:13:00.603Z,14.09
2019-03-21T11:15:35.532Z,14.44
2019-03-21T11:18:06.992Z,12.85
2019-03-21T11:20:39.275Z,11.93
2019-03-21T11:23:11.537Z,11.77
2019-03-21T11:25:46.159Z,12.05
2019-03-21T11:28:17.895Z,11.86
2019-03-21T11:30:51.159Z,12.40
2019-03-21T11:33:22.898Z,11.89
2019-03-21T11:35:54.329Z,11.66
2019-03-21T11:38:28.555Z,11.92
2019-03-21T11:41:01.083Z,11.40
2019-03-21T11:43:32.323Z,11.17
2019-03-21T11:46:04.647Z,11.44
2019-03-21T11:48:36.711Z,10.94
2019-03-21T11:51:12.414Z,11.22
2019-03-21T11:53:47.727Z,11.87
2019-03-21T11:56:23.596Z,12.09
2019-03-21T11:59:03.646Z,12.48
2019-03-21T12:01:44.771Z,12.29
2019-03-21T12:04:25.563Z,13.96
2019-03-21T12:06:56.948Z,15.26
2019-03-21T12:09:30.296Z,15.38
2019-03-21T12:12:15.708Z,15.14
2019-03-21T12:14:52.781Z,15.65
2019-03-21T12:17:24.229Z,17.08
2019-03-21T12:19:57.526Z,16.99
2019-03-21T12:22:30.207Z,15.02
2019-03-21T12:25:02.035Z,14.90
2019-03-21T12:30:11.529Z,17.69
2019-03-21T12:32:44.372Z,18.17
2019-03-21T12:35:15.629Z,17.47
2019-03-21T12:37:46.925Z,16.91
2019-03-21T12:40:18.698Z,15.21
2019-03-21T12:42:50.193Z,13.40
2019-03-21T12:45:24.613Z,12.36
2019-03-21T12:48:04.753Z,13.13
2019-03-21T12:50:36.943Z,13.60
2019-03-21T12:53:08.645Z,13.69
2019-03-21T12:55:40.514Z,12.90
2019-03-21T12:58:20.844Z,13.63
2019-03-21T13:00:53.385Z,13.48
2019-03-21T13:03:24.726Z,12.29
2019-03-21T13:05:58.537Z,11.72
2019-03-21T13:08:33.923Z,11.50
2019-03-21T13:11:04.267Z,11.00
2019-03-21T13:13:35.527Z,10.80
2019-03-21T13:16:07.991Z,10.67
2019-03-21T13:18:39.323Z,10.50
2019-03-21T13:21:10.583Z,10.43
2019-03-21T13:23:41.743Z,10.21
2019-03-21T13:26:14.879Z,10.05
2019-03-21T13:28:47.034Z,10.11
2019-03-21T13:31:22.162Z,10.20
2019-03-21T13:33:56.913Z,10.20
2019-03-21T13:36:28.496Z,10.08
2019-03-21T13:39:02.246Z,10.03
2019-03-21T13:41:36.175Z,9.99
2019-03-21T13:44:08.012Z,9.92
2019-03-21T13:46:40.297Z,9.93
2019-03-21T13:49:13.981Z,9.89
2019-03-21T13:51:51.227Z,9.91
2019-03-21T13:54:23.482Z,9.82
2019-03-21T13:56:56.207Z,9.74
2019-03-21T13:59:27.965Z,9.70
2019-03-21T14:02:00.747Z,9.69
2019-03-21T14:04:32.165Z,9.72
2019-03-21T14:07:03.426Z,9.74
2019-03-21T14:09:36.605Z,9.74
2019-03-21T14:12:08.906Z,9.86
2019-03-21T14:14:40.350Z,9.82
2019-03-21T14:17:22.269Z,9.69
2019-03-21T14:19:52.577Z,9.43
2019-03-21T14:22:30.889Z,9.62
2019-03-21T14:25:03.994Z,9.65
2019-03-21T14:27:35.504Z,9.69
2019-03-21T14:30:09.346Z,9.67
2019-03-21T14:32:40.734Z,9.66
2019-03-21T14:35:15.641Z,9.60
2019-03-21T14:37:49.510Z,9.58
2019-03-21T14:40:20.724Z,9.59
2019-03-21T14:42:53.192Z,9.58
2019-03-21T14:45:25.075Z,9.60
2019-03-21T14:47:56.567Z,9.69
2019-03-21T14:50:30.429Z,9.52
2019-03-21T14:53:03.690Z,9.43
2019-03-21T14:55:46.873Z,9.46
2019-03-21T14:58:10.111Z,9.46
2019-03-21T15:00:44.421Z,9.45
2019-03-21T15:03:18.055Z,9.36
2019-03-21T15:05:51.761Z,9.32
2019-03-21T15:08:23.441Z,9.37
2019-03-21T15:10:55.904Z,9.40
2019-03-21T15:13:28.395Z,9.41
2019-03-21T15:15:59.758Z,9.36
2019-03-21T15:18:31.211Z,9.33
2019-03-21T15:21:02.752Z,9.33
2019-03-21T15:23:40.688Z,9.26
2019-03-21T15:26:10.159Z,9.25
2019-03-21T15:28:42.938Z,9.18
2019-03-21T15:31:15.517Z,9.15
2019-03-21T15:33:47.678Z,9.12
2019-03-21T15:36:19.055Z,9.09
2019-03-21T15:38:51.130Z,9.01
2019-03-21T15:41:28.799Z,8.94
2019-03-21T15:44:02.214Z,8.88
2019-03-21T15:46:38.513Z,8.80
2019-03-21T15:49:09.849Z,8.75
2019-03-21T15:51:46.038Z,8.67
2019-03-21T15:54:17.468Z,8.65
2019-03-21T15:56:50.050Z,8.64
2019-03-21T15:59:21.426Z,8.62
2019-03-21T16:01:53.595Z,8.60
2019-03-21T16:04:27.336Z,8.57
2019-03-21T16:06:58.747Z,8.55
2019-03-21T16:09:29.939Z,8.50
2019-03-21T16:12:01.261Z,8.46
2019-03-21T16:14:36.623Z,8.46
2019-03-21T16:17:09.790Z,8.51
2019-03-21T16:19:43.647Z,8.44
2019-03-21T16:22:19.373Z,8.42
2019-03-21T16:24:51.142Z,8.39
2019-03-21T16:27:28.370Z,8.37
2019-03-21T16:30:08.622Z,8.31
2019-03-21T16:32:42.139Z,8.21
2019-03-21T16:35:13.774Z,8.18
2019-03-21T16:37:49.904Z,8.09
2019-03-21T16:40:22.797Z,8.05
2019-03-21T16:42:53.948Z,7.93
2019-03-21T16:45:36.082Z,7.92
2019-03-21T16:48:11.251Z,7.87
2019-03-21T16:50:43.665Z,7.84
2019-03-21T16:53:16.490Z,7.85
2019-03-21T16:55:48.014Z,7.87
2019-03-21T16:58:19.721Z,7.85
2019-03-21T17:00:51.725Z,7.82
2019-03-21T17:03:24.938Z,7.86
2019-03-21T17:05:59.008Z,7.78
2019-03-21T17:08:32.488Z,7.74
2019-03-21T17:11:09.644Z,7.70
2019-03-21T17:13:42.146Z,7.62
2019-03-21T17:16:15.271Z,7.64
2019-03-21T17:18:47.944Z,7.60
2019-03-21T17:21:21.382Z,7.66
2019-03-21T17:23:52.848Z,7.64
2019-03-21T17:26:24.156Z,7.71
2019-03-21T17:28:55.707Z,7.68
2019-03-21T17:31:27.117Z,7.67
2019-03-21T17:34:00.289Z,7.65
2019-03-21T17:36:34.066Z,7.54
2019-03-21T17:39:09.317Z,7.52
2019-03-21T17:41:43.801Z,7.41
2019-03-21T17:44:15.797Z,7.35
2019-03-21T17:46:47.208Z,7.30
2019-03-21T17:49:20.246Z,7.17
2019-03-21T17:51:52.713Z,7.10
2019-03-21T17:54:24.599Z,6.95
2019-03-21T17:56:55.926Z,6.78
2019-03-21T17:59:28.536Z,6.73
2019-03-21T18:02:02.987Z,6.61
2019-03-21T18:04:37.167Z,6.56
2019-03-21T18:07:09.180Z,6.50
2019-03-21T18:09:47.229Z,6.46
2019-03-21T18:15:07.399Z,6.51
2019-03-21T18:17:38.649Z,6.45
2019-03-21T18:20:10.794Z,6.42
2019-03-21T18:22:42.080Z,6.42
2019-03-21T18:25:14.030Z,6.37
2019-03-21T18:27:46.198Z,6.34
2019-03-21T18:30:17.395Z,6.32
2019-03-21T18:32:48.895Z,6.30
2019-03-21T18:35:20.102Z,6.20
2019-03-21T18:37:51.739Z,6.18
2019-03-21T18:40:23.078Z,6.15
2019-03-21T18:42:55.209Z,6.15
2019-03-21T18:45:26.858Z,6.08
2019-03-21T18:47:58.520Z,6.08
2019-03-21T18:50:30.047Z,6.02
2019-03-21T18:53:01.347Z,5.98
2019-03-21T18:55:33.872Z,5.93
2019-03-21T18:58:06.583Z,5.85
2019-03-21T19:00:39.463Z,5.75
2019-03-21T19:03:11.125Z,5.68
2019-03-21T19:05:42.539Z,5.60
2019-03-21T19:08:14.032Z,5.52
2019-03-21T19:10:47.053Z,5.39
2019-03-21T19:13:21.802Z,5.29
2019-03-21T19:15:53.186Z,5.26
2019-03-21T19:18:24.793Z,5.23
2019-03-21T19:20:55.986Z,5.23
2019-03-21T19:23:27.360Z,5.26
2019-03-21T19:25:58.498Z,5.04
2019-03-21T19:28:29.636Z,5.25
2019-03-21T19:31:00.941Z,5.26
2019-03-21T19:33:32.237Z,5.31
2019-03-21T19:36:03.712Z,5.29
2019-03-21T19:38:35.778Z,5.29
2019-03-21T19:41:08.771Z,5.21
2019-03-21T19:43:40.840Z,5.16
2019-03-21T19:46:16.812Z,5.13
2019-03-21T19:48:50.412Z,5.08
2019-03-21T19:51:21.033Z,5.01
2019-03-21T19:53:52.291Z,4.95
2019-03-21T19:56:24.229Z,4.93
2019-03-21T19:58:55.331Z,4.92
2019-03-21T20:01:26.374Z,4.90
2019-03-21T20:03:57.529Z,4.89
2019-03-21T20:06:28.645Z,4.91
2019-03-21T20:08:59.996Z,4.88
2019-03-21T20:11:31.580Z,4.88
2019-03-21T20:14:04.088Z,4.90
2019-03-21T20:16:35.527Z,4.95
2019-03-21T20:19:07.469Z,4.93
2019-03-21T20:21:47.278Z,4.95
2019-03-21T20:24:12.143Z,4.97
2019-03-21T20:26:44.187Z,4.99
2019-03-21T20:29:15.296Z,5.01
2019-03-21T20:31:46.526Z,4.95
2019-03-21T20:34:18.204Z,4.95
2019-03-21T20:36:49.411Z,4.90
2019-03-21T20:39:21.070Z,5.04
2019-03-21T20:41:52.603Z,5.11
2019-03-21T20:44:24.093Z,5.02
2019-03-21T20:46:55.894Z,4.93
2019-03-21T20:49:28.766Z,4.90
2019-03-21T20:51:59.903Z,4.88
2019-03-21T20:54:31.017Z,4.86
2019-03-21T20:57:03.075Z,4.83
2019-03-21T20:59:34.254Z,4.75
2019-03-21T21:02:05.484Z,4.78
2019-03-21T21:04:36.680Z,4.75
2019-03-21T21:07:07.925Z,4.71
2019-03-21T21:09:39.133Z,4.72
2019-03-21T21:12:10.269Z,4.71
2019-03-21T21:14:41.633Z,4.71
2019-03-21T21:17:13.316Z,4.70
2019-03-21T21:19:44.512Z,4.73
2019-03-21T21:22:15.764Z,4.69
2019-03-21T21:24:46.936Z,4.67
2019-03-21T21:27:18.247Z,4.62
2019-03-21T21:29:50.026Z,4.61
2019-03-21T21:32:22.591Z,4.62
2019-03-21T21:34:54.753Z,4.57
2019-03-21T21:37:26.098Z,4.48
2019-03-21T21:39:57.711Z,4.47
2019-03-21T21:42:29.125Z,4.44
2019-03-21T21:45:00.497Z,4.55
2019-03-21T21:47:36.156Z,4.53
2019-03-21T21:50:10.225Z,4.54
2019-03-21T21:52:42.579Z,4.53
2019-03-21T21:55:15.790Z,4.66
2019-03-21T21:57:48.262Z,4.69
2019-03-21T22:00:22.884Z,4.83
2019-03-21T22:02:54.273Z,4.88
2019-03-21T22:05:26.296Z,4.95
2019-03-21T22:07:59.696Z,5.03
2019-03-21T22:10:31.171Z,4.95
2019-03-21T22:13:02.705Z,4.87
2019-03-21T22:15:34.122Z,4.77
2019-03-21T22:18:05.611Z,4.70
2019-03-21T22:20:38.704Z,4.55
2019-03-21T22:23:11.669Z,4.46
2019-03-21T22:25:43.032Z,4.35
2019-03-21T22:28:14.250Z,4.31
2019-03-21T22:30:45.470Z,4.32
2019-03-21T22:33:16.801Z,4.33
2019-03-21T22:35:49.438Z,4.32
2019-03-21T22:38:20.611Z,4.29
2019-03-21T22:40:51.792Z,4.30
2019-03-21T22:43:23.124Z,4.37
2019-03-21T22:45:54.772Z,4.39
2019-03-21T22:48:26.242Z,4.37
2019-03-21T22:50:59.310Z,4.37
2019-03-21T22:53:31.340Z,4.34
2019-03-21T22:56:03.036Z,4.32
2019-03-21T22:58:36.745Z,4.32
2019-03-21T23:01:08.598Z,4.28
2019-03-21T23:03:39.842Z,4.32
2019-03-21T23:06:11.305Z,4.33
2019-03-21T23:08:42.650Z,4.32
2019-03-21T23:11:14.363Z,4.36
2019-03-21T23:13:47.495Z,4.40
2019-03-21T23:16:20.087Z,4.35
2019-03-21T23:18:57.596Z,4.40
2019-03-21T23:21:28.724Z,4.34
2019-03-21T23:23:59.961Z,4.31
2019-03-21T23:26:31.141Z,4.30
2019-03-21T23:29:02.536Z,4.26
2019-03-21T23:31:34.085Z,4.30
2019-03-21T23:34:05.822Z,4.31
2019-03-21T23:36:38.032Z,4.32
2019-03-21T23:39:10.204Z,4.41
2019-03-21T23:41:42.120Z,4.44
2019-03-21T23:44:13.882Z,4.37
2019-03-21T23:46:45.938Z,4.27
2019-03-21T23:49:17.367Z,4.21
2019-03-21T23:51:48.787Z,4.10
2019-03-21T23:54:20.072Z,3.98
2019-03-21T23:56:51.369Z,3.99
2019-03-21T23:59:23.904Z,3.88
